Terminal Aerodrome Forecast
Issued by NWS

Home | Current Version | Previous Version | Text Only | Print | Product List | Glossary On
Versions: 1 2 3 4 5 6 7 8 9 10 11 12 13 14 15 16 17 18 19 20 21 22
000
FTAK31 PAJN 020521
TAFAYA
TAF
PAYA 020521Z 0206/0306 00000KT P6SM FEW015 SCT025 BKN150
      TEMPO 0206/0210 VRB03KT BKN025
     FM021200 00000KT 1SM BR BKN003 OVC015
     FM021700 30004KT P6SM FEW003 OVC007
     FM022200 28005KT P6SM FEW007 BKN015 BKN040=

USA.gov is the U.S. government's official web portal to all federal, state and local government web resources and services.